地図

経路データ

SID SEASON NUMBER BASIN SUBBASIN NAME ISO_TIME NATURE LAT LON WMO_WIND WMO_PRES WMO_AGENCY TRACK_TYPE DIST2LAND LANDFALL IFLAG USA_AGENCY USA_ATCF_ID USA_LAT USA_LON USA_RECORD USA_STATUS USA_WIND USA_PRES USA_SSHS USA_R34_NE USA_R34_SE USA_R34_SW USA_R34_NW USA_R50_NE USA_R50_SE USA_R50_SW USA_R50_NW USA_R64_NE USA_R64_SE USA_R64_SW USA_R64_NW USA_POCI USA_ROCI USA_RMW USA_EYE TOKYO_LAT TOKYO_LON TOKYO_GRADE TOKYO_WIND TOKYO_PRES TOKYO_R50_DIR TOKYO_R50_LONG TOKYO_R50_SHORT TOKYO_R30_DIR TOKYO_R30_LONG TOKYO_R30_SHORT TOKYO_LAND CMA_LAT CMA_LON CMA_CAT CMA_WIND CMA_PRES HKO_LAT HKO_LON HKO_CAT HKO_WIND HKO_PRES NEWDELHI_LAT NEWDELHI_LON NEWDELHI_GRADE NEWDELHI_WIND NEWDELHI_PRES NEWDELHI_CI NEWDELHI_DP NEWDELHI_POCI REUNION_LAT REUNION_LON REUNION_TYPE REUNION_WIND REUNION_PRES REUNION_TNUM REUNION_CI REUNION_RMW REUNION_R34_NE REUNION_R34_SE REUNION_R34_SW REUNION_R34_NW REUNION_R50_NE REUNION_R50_SE REUNION_R50_SW REUNION_R50_NW REUNION_R64_NE REUNION_R64_SE REUNION_R64_SW REUNION_R64_NW BOM_LAT BOM_LON BOM_TYPE BOM_WIND BOM_PRES BOM_TNUM BOM_CI BOM_RMW BOM_R34_NE BOM_R34_SE BOM_R34_SW BOM_R34_NW BOM_R50_NE BOM_R50_SE BOM_R50_SW BOM_R50_NW BOM_R64_NE BOM_R64_SE BOM_R64_SW BOM_R64_NW BOM_ROCI BOM_POCI BOM_EYE BOM_POS_METHOD BOM_PRES_METHOD NADI_LAT NADI_LON NADI_CAT NADI_WIND NADI_PRES WELLINGTON_LAT WELLINGTON_LON WELLINGTON_WIND WELLINGTON_PRES DS824_LAT DS824_LON DS824_STAGE DS824_WIND DS824_PRES TD9636_LAT TD9636_LON TD9636_STAGE TD9636_WIND TD9636_PRES TD9635_LAT TD9635_LON TD9635_WIND TD9635_PRES TD9635_ROCI NEUMANN_LAT NEUMANN_LON NEUMANN_CLASS NEUMANN_WIND NEUMANN_PRES MLC_LAT MLC_LON MLC_CLASS MLC_WIND MLC_PRES USA_GUST BOM_GUST BOM_GUST_PER REUNION_GUST REUNION_GUST_PER USA_SEAHGT USA_SEARAD_NE USA_SEARAD_SE USA_SEARAD_SW USA_SEARAD_NW STORM_SPEED STORM_DIR
1851181N19275 1851 6 NA CS NOT_NAMED 1851-06-29 12:00:00 TS 19.0000 -84.6000 main 299 255 _____________O -1 19.0000 -84.6000 TD 30 8 285
1851181N19275 1851 6 NA CS NOT_NAMED 1851-06-29 15:00:00 TS 19.1002 -84.9999 main 255 212 _____________P -1 19.1002 -84.9999 TD 30 8 285
1851181N19275 1851 6 NA CS NOT_NAMED 1851-06-29 18:00:00 TS 19.2000 -85.4000 main 212 169 _____________O -1 19.2000 -85.4000 TD 30 8 285
1851181N19275 1851 6 NA CS NOT_NAMED 1851-06-29 21:00:00 TS 19.2999 -85.8000 main 169 126 _____________P -1 19.2999 -85.8000 TD 30 8 285
1851181N19275 1851 6 NA CS NOT_NAMED 1851-06-30 00:00:00 TS 19.4000 -86.2000 main 126 83 _____________O -1 19.4000 -86.2000 TD 30 8 285
1851181N19275 1851 6 NA CS NOT_NAMED 1851-06-30 03:00:00 TS 19.5000 -86.6075 main 83 43 _____________P -1 19.5000 -86.6075 TD 32 8 285
1851181N19275 1851 6 NA CS NOT_NAMED 1851-06-30 06:00:00 TS 19.6000 -87.0000 main 43 23 _____________O -1 19.6000 -87.0000 TS 35 7 286
1851181N19275 1851 6 NA CS NOT_NAMED 1851-06-30 09:00:00 TS 19.6998 -87.3501 main 15 0 _____________P -1 19.6998 -87.3501 TS 37 7 287
1851181N19275 1851 6 NA NA NOT_NAMED 1851-06-30 12:00:00 TS 19.8000 -87.7000 main 0 0 _____________O -1 19.8000 -87.7000 TS 40 7 287
1851181N19275 1851 6 NA NA NOT_NAMED 1851-06-30 15:00:00 TS 19.9075 -88.0925 main 0 0 _____________P -1 19.9075 -88.0925 TS 35 8 285
1851181N19275 1851 6 NA NA NOT_NAMED 1851-06-30 18:00:00 TS 20.0000 -88.5000 main 0 0 _____________O -1 20.0000 -88.5000 TD 30 8 281
1851181N19275 1851 6 NA NA NOT_NAMED 1851-06-30 21:00:00 TS 20.0499 -88.9001 main 0 0 _____________P -1 20.0499 -88.9001 TD 30 8 278
1851181N19275 1851 6 NA NA NOT_NAMED 1851-07-01 00:00:00 TS 20.1000 -89.3000 main 0 0 _____________O -1 20.1000 -89.3000 TD 30 8 281
1851181N19275 1851 6 NA NA NOT_NAMED 1851-07-01 03:00:00 TS 20.1924 -89.7000 main 0 0 _____________P -1 20.1924 -89.7000 TD 35 8 285
1851181N19275 1851 6 NA NA NOT_NAMED 1851-07-01 06:00:00 TS 20.3000 -90.1000 main 0 0 _____________O -1 20.3000 -90.1000 TS 40 8 285
1851181N19275 1851 6 NA GM NOT_NAMED 1851-07-01 09:00:00 TS 20.4000 -90.5075 main 0 0 _____________P -1 20.4000 -90.5075 TS 40 8 285
1851181N19275 1851 6 NA GM NOT_NAMED 1851-07-01 12:00:00 TS 20.5000 -90.9000 main 41 41 _____________O -1 20.5000 -90.9000 TS 40 7 286
1851181N19275 1851 6 NA GM NOT_NAMED 1851-07-01 15:00:00 TS 20.6074 -91.2650 main 84 84 _____________P -1 20.6074 -91.2650 TS 45 7 287
1851181N19275 1851 6 NA GM NOT_NAMED 1851-07-01 18:00:00 TS 20.7000 -91.6000 main 116 116 _____________O -1 20.7000 -91.6000 TS 50 6 283
1851181N19275 1851 6 NA GM NOT_NAMED 1851-07-01 21:00:00 TS 20.7499 -91.9001 main 147 147 _____________P -1 20.7499 -91.9001 TS 50 6 280
1851181N19275 1851 6 NA GM NOT_NAMED 1851-07-02 00:00:00 TS 20.8000 -92.2000 main 180 180 _____________O -1 20.8000 -92.2000 TS 50 6 283
1851181N19275 1851 6 NA GM NOT_NAMED 1851-07-02 03:00:00 TS 20.8925 -92.5425 main 212 212 _____________P -1 20.8925 -92.5425 TS 52 7 287
1851181N19275 1851 6 NA GM NOT_NAMED 1851-07-02 06:00:00 TS 21.0000 -92.9000 main 255 255 _____________O -1 21.0000 -92.9000 TS 55 7 288
1851181N19275 1851 6 NA GM NOT_NAMED 1851-07-02 09:00:00 TS 21.0999 -93.2426 main 284 284 _____________P -1 21.0999 -93.2426 TS 57 7 287
1851181N19275 1851 6 NA GM NOT_NAMED 1851-07-02 12:00:00 TS 21.2000 -93.6000 main 305 294 _____________O -1 21.2000 -93.6000 TS 60 7 286
1851181N19275 1851 6 NA GM NOT_NAMED 1851-07-02 15:00:00 TS 21.3000 -93.9925 main 294 267 _____________P -1 21.3000 -93.9925 TS 60 8 285
1851181N19275 1851 6 NA GM NOT_NAMED 1851-07-02 18:00:00 TS 21.4000 -94.4000 main 267 243 _____________O -1 21.4000 -94.4000 TS 60 8 285
1851181N19275 1851 6 NA GM NOT_NAMED 1851-07-02 21:00:00 TS 21.4999 -94.8001 main 243 217 _____________P -1 21.4999 -94.8001 TS 65 8 285
1851181N19275 1851 6 NA GM NOT_NAMED 1851-07-03 00:00:00 TS 21.6000 -95.2000 main 217 176 _____________O -1 21.6000 -95.2000 HU 70 8 285
1851181N19275 1851 6 NA GM NOT_NAMED 1851-07-03 03:00:00 TS 21.6999 -95.6001 main 176 136 _____________P -1 21.6999 -95.6001 HU 70 8 285
1851181N19275 1851 6 NA GM NOT_NAMED 1851-07-03 06:00:00 TS 21.8000 -96.0000 main 136 98 _____________O -1 21.8000 -96.0000 HU 70 8 285
1851181N19275 1851 6 NA GM NOT_NAMED 1851-07-03 09:00:00 TS 21.9000 -96.4150 main 98 68 _____________P -1 21.9000 -96.4150 HU 75 8 285
1851181N19275 1851 6 NA GM NOT_NAMED 1851-07-03 12:00:00 TS 22.0000 -96.8000 main 68 53 _____________O -1 22.0000 -96.8000 HU 80 7 287
1851181N19275 1851 6 NA GM NOT_NAMED 1851-07-03 15:00:00 TS 22.0999 -97.1151 main 53 38 _____________P -1 22.0999 -97.1151 HU 80 6 290
1851181N19275 1851 6 NA GM NOT_NAMED 1851-07-03 18:00:00 TS 22.2000 -97.4000 main 38 10 _____________O -1 22.2000 -97.4000 HU 80 6 290
1851181N19275 1851 6 NA GM NOT_NAMED 1851-07-03 21:00:00 TS 22.2999 -97.7001 main 10 0 _____________P -1 22.2999 -97.7001 HU 75 6 290
1851181N19275 1851 6 NA NA NOT_NAMED 1851-07-04 00:00:00 TS 22.4000 -98.0000 main 0 0 _____________O -1 22.4000 -98.0000 HU 70 6 290
1851181N19275 1851 6 NA NA NOT_NAMED 1851-07-04 03:00:00 TS 22.4999 -98.3000 main 0 0 _____________P -1 22.4999 -98.3000 HU 57 6 290
1851181N19275 1851 6 NA NA NOT_NAMED 1851-07-04 06:00:00 TS 22.6000 -98.6000 main 0 0 _____________O -1 22.6000 -98.6000 TS 45 6 290
1851181N19275 1851 6 NA NA NOT_NAMED 1851-07-04 09:00:00 TS 22.7001 -98.8999 main 0 0 _____________P -1 22.7001 -98.8999 TS 37 6 290
1851181N19275 1851 6 NA NA NOT_NAMED 1851-07-04 12:00:00 TS 22.8000 -99.2000 main 0 _____________O -1 22.8000 -99.2000 TD 30 6 290

IBTrACS Databaseについて

本データベースは、米国NOAAが公開する1842年以降の世界の熱帯低気圧のベストトラックデータアーカイブInternational Best Track Archive for Climate Stewardship (IBTrACS)を、ウェブで閲覧しやすい形式に変換したものです。

最終更新日:2021-11-26